Terminal Aerodrome Forecast
Issued by NWS

Home | Current Version | Previous Version | Text Only | Print | Product List | Glossary On
Versions: 1 2 3 4 5 6 7 8 9 10 11 12 13 14 15 16 17 18
573
FTUS45 KFGZ 281320 AAA
TAFPRC
TAF AMD
KPRC 281320Z 2813/2912 VRB05KT P6SM SCT070 BKN110
      TEMPO 2813/2815 -SHRA BKN060
     FM281900 15009KT P6SM BKN040 BKN090
     FM290200 17005KT P6SM SCT100=

USA.gov is the U.S. government's official web portal to all federal, state and local government web resources and services.